Wolgastern — CQLH — position and weather

sailwx.info

Track history (hours):
 
Tides and Currents Weather Stations Pressure Air Temp Water Temp Dewpoint Dewpoint Depression Visibility Wind Speed Wind Dir Waves Ship Positions

Wolgastern

Last reported at 2017-Dec-09 21:28 UTC. Time now 2017-Dec-13 09:13 UTC.
Position N 41°14' W 008°54'.

Length 162 m; draft 7.8 m.

Type: Ship. MMSI: 255804950.

Date/timePositionNaut miles runAvg speedWind from/ knotsBaromVisibWave heightAir tempDewpointWater temp
2017-Dec-09 21:28N 41°14' W 008°54'612.1
2017-Dec-09 21:00N 41°12' W 008°48'4 8.6
2017-Dec-09 20:30N 41°11' W 008°42'0 0.9
2017-Dec-09 19:59N 41°11' W 008°43'0 0.0
2017-Dec-09 19:29N 41°11' W 008°43'0 0.0
2017-Dec-09 18:59N 41°11' W 008°43'0 0.0
2017-Dec-09 18:29N 41°11' W 008°43'0 0.0
2017-Dec-09 17:59N 41°11' W 008°43'0 0.0
2017-Dec-09 17:29N 41°11' W 008°43'0 0.0
2017-Dec-09 16:59N 41°11' W 008°43'0 0.0
2017-Dec-09 16:29N 41°11' W 008°43'0 0.0
2017-Dec-09 15:59N 41°11' W 008°43'0 0.0
2017-Dec-09 15:29N 41°11' W 008°43'0 0.0
2017-Dec-09 14:59N 41°11' W 008°43'0 0.0
2017-Dec-09 14:29N 41°11' W 008°43'0 0.0
2017-Dec-09 13:59N 41°11' W 008°43'0 0.0
2017-Dec-09 13:29N 41°11' W 008°43'0 0.0
2017-Dec-09 12:56N 41°11' W 008°43'0 0.0
2017-Dec-09 12:29N 41°11' W 008°43'0 0.0
2017-Dec-09 11:59N 41°11' W 008°43'0 0.0
2017-Dec-09 11:29N 41°11' W 008°43'0 0.0
2017-Dec-09 10:59N 41°11' W 008°43'0 0.0
2017-Dec-09 10:29N 41°11' W 008°43'0 0.0
2017-Dec-09 09:59N 41°11' W 008°43'0 0.0
2017-Dec-09 09:29N 41°11' W 008°43'0 0.0
2017-Dec-09 08:59N 41°11' W 008°43'0 0.0
2017-Dec-09 08:29N 41°11' W 008°43'0 0.0
2017-Dec-09 07:59N 41°11' W 008°43'0 0.0
2017-Dec-09 07:29N 41°11' W 008°43'0 0.0
2017-Dec-09 06:59N 41°11' W 008°43'0 0.0
2017-Dec-09 06:29N 41°11' W 008°43'0 0.0
2017-Dec-09 05:59N 41°11' W 008°43'0 0.0
2017-Dec-09 05:29N 41°11' W 008°43'0 0.0
2017-Dec-09 04:59N 41°11' W 008°43'0 0.0
2017-Dec-09 04:29N 41°11' W 008°43'0 0.0
2017-Dec-09 03:59N 41°11' W 008°43'0 0.0
2017-Dec-09 03:29N 41°11' W 008°43'0 0.0
2017-Dec-09 02:59N 41°11' W 008°43'0 0.0
2017-Dec-09 02:29N 41°11' W 008°43'0 0.0
2017-Dec-09 01:59N 41°11' W 008°43'0 0.0
2017-Dec-09 01:29N 41°11' W 008°43'0 0.0
2017-Dec-09 00:59N 41°11' W 008°43'0 0.0
2017-Dec-09 00:29N 41°11' W 008°43'0 0.0
2017-Dec-08 23:59N 41°11' W 008°43'0 0.0
2017-Dec-08 23:29N 41°11' W 008°43'0 0.0
2017-Dec-08 22:59N 41°11' W 008°43'0 0.0
2017-Dec-08 22:29N 41°11' W 008°43'0 0.0
2017-Dec-08 21:59N 41°11' W 008°43'0 0.0
2017-Dec-08 21:29N 41°11' W 008°43'0 0.0
2017-Dec-08 20:59N 41°11' W 008°43'0 0.0
2017-Dec-08 20:29N 41°11' W 008°43'0 0.0
2017-Dec-08 19:59N 41°11' W 008°43'0 0.0
2017-Dec-08 19:29N 41°11' W 008°43'0 0.0
2017-Dec-08 18:59N 41°11' W 008°43'0 0.0
2017-Dec-08 18:29N 41°11' W 008°43'0 0.0
2017-Dec-08 17:59N 41°11' W 008°43'0 0.0
2017-Dec-08 17:29N 41°11' W 008°43'0 0.0
2017-Dec-08 16:53N 41°11' W 008°43'0 0.0
2017-Dec-08 16:29N 41°11' W 008°43'0 0.0
2017-Dec-08 15:59N 41°11' W 008°43'0 0.0
2017-Dec-08 15:29N 41°11' W 008°43'0 0.0
2017-Dec-08 14:59N 41°11' W 008°43'0 0.0
2017-Dec-08 14:29N 41°11' W 008°43'0 0.0
2017-Dec-08 13:59N 41°11' W 008°43'0 0.2
2017-Dec-08 13:30N 41°11' W 008°42'2 3.5
2017-Dec-08 13:00N 41°09' W 008°43'4 7.2
2017-Dec-08 12:30N 41°07' W 008°47'0 0.9
2017-Dec-08 12:00N 41°07' W 008°47'2 3.1
2017-Dec-08 11:30N 41°08' W 008°45'3 6.5
2017-Dec-08 11:00N 41°07' W 008°49'612.3
2017-Dec-08 10:30N 41°01' W 008°50'  
2017-Dec-04 10:09N 43°55' W 005°34'312.0
2017-Dec-04 09:56N 43°55' W 005°31'512.2
2017-Dec-04 09:30N 43°54' W 005°23'612.2
2017-Dec-04 09:00N 43°54' W 005°15'5612.1
2017-Dec-04 04:23N 43°49' W 003°58'512.0
2017-Dec-04 04:00N 43°47' W 003°52'611.8
2017-Dec-04 03:30N 43°44' W 003°45'612.0
2017-Dec-04 03:00N 43°41' W 003°37'611.8
2017-Dec-04 02:30N 43°39' W 003°30'611.5
2017-Dec-04 02:00N 43°36' W 003°23'611.4
2017-Dec-04 01:30N 43°33' W 003°16'611.4
2017-Dec-04 01:00N 43°30' W 003°10'611.7
2017-Dec-04 00:30N 43°25' W 003°06'3 5.5
2017-Dec-04 00:00N 43°22' W 003°06'0 0.0
2017-Dec-03 23:28N 43°22' W 003°06'0 0.0
2017-Dec-03 22:58N 43°22' W 003°06'0 0.0
2017-Dec-03 22:28N 43°22' W 003°06'0 0.0
2017-Dec-03 21:58N 43°22' W 003°06'0 0.0
2017-Dec-03 21:28N 43°22' W 003°06'0 0.0
2017-Dec-03 20:58N 43°22' W 003°06'0 0.0
2017-Dec-03 20:28N 43°22' W 003°06'0 0.0
2017-Dec-03 19:58N 43°22' W 003°06'0 0.0
2017-Dec-03 19:28N 43°22' W 003°06'0 0.0
2017-Dec-03 18:58N 43°22' W 003°06'0 0.0
2017-Dec-03 18:28N 43°22' W 003°06'0 0.0
2017-Dec-03 17:58N 43°22' W 003°06'0 0.0
2017-Dec-03 17:28N 43°22' W 003°06'0 0.0
2017-Dec-03 16:58N 43°22' W 003°06'0 0.0
2017-Dec-03 16:25N 43°22' W 003°06'0 0.0
2017-Dec-03 15:58N 43°22' W 003°06'0 0.0
2017-Dec-03 15:28N 43°22' W 003°06'0 0.0
2017-Dec-03 14:58N 43°22' W 003°06'0 0.0
2017-Dec-03 14:28N 43°22' W 003°06'0 0.0
2017-Dec-03 13:58N 43°22' W 003°06'0 0.0
2017-Dec-03 13:28N 43°22' W 003°06'0 0.0
2017-Dec-03 12:58N 43°22' W 003°06'0 0.0
2017-Dec-03 12:25N 43°22' W 003°06'0 0.0
2017-Dec-03 11:58N 43°22' W 003°06'0 0.0
2017-Dec-03 11:28N 43°22' W 003°06'0 0.0
2017-Dec-03 10:58N 43°22' W 003°06'0 0.0
2017-Dec-03 10:28N 43°22' W 003°06'0 0.0
2017-Dec-03 09:55N 43°22' W 003°06'0 0.0
2017-Dec-03 09:28N 43°22' W 003°06'0 0.0
2017-Dec-03 08:58N 43°22' W 003°06'0 0.0
2017-Dec-03 08:28N 43°22' W 003°06'0 0.0
2017-Dec-03 07:55N 43°22' W 003°06'0 0.0
2017-Dec-03 07:28N 43°22' W 003°06'0 0.0
2017-Dec-03 06:58N 43°22' W 003°06'0 0.0
2017-Dec-03 06:28N 43°22' W 003°06'0 0.0
2017-Dec-03 05:58N 43°22' W 003°06'0 0.0
2017-Dec-03 05:28N 43°22' W 003°06'0 0.0
2017-Dec-03 04:58N 43°22' W 003°06'0 0.0
2017-Dec-03 04:28N 43°22' W 003°06'0 0.0
2017-Dec-03 03:58N 43°22' W 003°06'0 0.0
2017-Dec-03 03:28N 43°22' W 003°06'0 0.0
2017-Dec-03 02:58N 43°22' W 003°06'0 0.0
2017-Dec-03 02:28N 43°22' W 003°06'0 0.0
2017-Dec-03 01:58N 43°22' W 003°06'0 0.0
2017-Dec-03 01:25N 43°22' W 003°06'0 0.0
2017-Dec-03 00:58N 43°22' W 003°06'0 0.0
2017-Dec-03 00:28N 43°22' W 003°06'0 0.0
2017-Dec-02 23:58N 43°22' W 003°06'0 0.0
2017-Dec-02 23:28N 43°22' W 003°06'0 0.0
2017-Dec-02 22:58N 43°22' W 003°06'0 0.0
2017-Dec-02 22:28N 43°22' W 003°06'0 0.0
2017-Dec-02 21:58N 43°22' W 003°06'0 0.0
2017-Dec-02 21:28N 43°22' W 003°06'0 0.0
2017-Dec-02 20:58N 43°22' W 003°06'0 0.0
2017-Dec-02 20:28N 43°22' W 003°06'0 0.0
2017-Dec-02 19:58N 43°22' W 003°06'0 0.0
2017-Dec-02 19:28N 43°22' W 003°06'0 0.0
2017-Dec-02 18:58N 43°22' W 003°06'0 0.0
2017-Dec-02 18:28N 43°22' W 003°06'0 0.0
2017-Dec-02 17:58N 43°22' W 003°06'0 0.0
2017-Dec-02 17:28N 43°22' W 003°06'0 0.0
2017-Dec-02 16:58N 43°22' W 003°06'0 0.0
2017-Dec-02 16:28N 43°22' W 003°06'0 0.0
2017-Dec-02 15:55N 43°22' W 003°06'0 0.0
2017-Dec-02 15:28N 43°22' W 003°06'0 0.0
2017-Dec-02 14:58N 43°22' W 003°06'0 0.0
2017-Dec-02 14:28N 43°22' W 003°06'0 0.0
2017-Dec-02 13:58N 43°22' W 003°06'0 0.0
2017-Dec-02 13:28N 43°22' W 003°06'0 0.0
2017-Dec-02 12:55N 43°22' W 003°06'0 0.0
2017-Dec-02 12:28N 43°22' W 003°06'0 0.0
2017-Dec-02 11:58N 43°22' W 003°06'0 0.0
2017-Dec-02 11:28N 43°22' W 003°06'0 0.0
2017-Dec-02 10:58N 43°22' W 003°06'0 0.0
2017-Dec-02 10:28N 43°22' W 003°06'0 0.0
2017-Dec-02 09:58N 43°22' W 003°06'0 0.0
2017-Dec-02 09:28N 43°22' W 003°06'0 0.0
2017-Dec-02 08:58N 43°22' W 003°06'0 0.0
2017-Dec-02 08:28N 43°22' W 003°06'0 0.0
2017-Dec-02 07:58N 43°22' W 003°06'0 0.0
2017-Dec-02 07:28N 43°22' W 003°06'0 0.0
2017-Dec-02 06:58N 43°22' W 003°06'0 0.0
2017-Dec-02 06:28N 43°22' W 003°06'0 0.0
2017-Dec-02 05:58N 43°22' W 003°06'0 0.0
2017-Dec-02 05:28N 43°22' W 003°06'0 0.0
2017-Dec-02 04:58N 43°22' W 003°06'0 0.0
2017-Dec-02 04:28N 43°22' W 003°06'0 0.0
2017-Dec-02 03:58N 43°22' W 003°06'0 0.0
2017-Dec-02 03:25N 43°22' W 003°06'0 0.0
2017-Dec-02 02:58N 43°22' W 003°06'0 0.0
2017-Dec-02 02:28N 43°22' W 003°06'0 0.0
2017-Dec-02 01:58N 43°22' W 003°06'0 0.0
2017-Dec-02 01:28N 43°22' W 003°06'0 0.0
2017-Dec-02 00:58N 43°22' W 003°06'0 0.1
2017-Dec-02 00:30N 43°22' W 003°06'2 3.4
2017-Dec-02 00:00N 43°24' W 003°05'3 5.2
2017-Dec-01 23:30N 43°26' W 003°06'1 2.0
2017-Dec-01 23:00N 43°27' W 003°06'0 0.8
2017-Dec-01 22:30N 43°27' W 003°06'0 0.6
2017-Dec-01 22:00N 43°27' W 003°05'5 9.9
2017-Dec-01 21:30N 43°31' W 003°09'0 0.8
2017-Dec-01 21:00N 43°31' W 003°09'1 1.2
2017-Dec-01 20:30N 43°31' W 003°08'1 1.9
2017-Dec-01 20:00N 43°30' W 003°08'1 2.0
2017-Dec-01 19:30N 43°29' W 003°08'1 1.2
2017-Dec-01 19:00N 43°29' W 003°08'1 1.8
2017-Dec-01 18:30N 43°28' W 003°06'1 2.2
2017-Dec-01 18:00N 43°29' W 003°05'1 1.8
2017-Dec-01 17:30N 43°28' W 003°04'2 4.1
2017-Dec-01 17:00N 43°30' W 003°05'3 6.1
2017-Dec-01 16:30N 43°32' W 003°09'3 4.3
2017-Dec-01 15:53N 43°33' W 003°12'1 3.5
2017-Dec-01 15:29N 43°35' W 003°13'1 2.2
2017-Dec-01 14:58N 43°36' W 003°13'3 5.9
2017-Dec-01 14:26N 43°33' W 003°11'1 2.1
2017-Dec-01 14:00N 43°32' W 003°11'0 0.9
2017-Dec-01 13:30N 43°32' W 003°10'0 0.9
2017-Dec-01 13:00N 43°32' W 003°10'1 2.2
2017-Dec-01 12:30N 43°31' W 003°09'1 1.5
2017-Dec-01 12:00N 43°30' W 003°08'1 1.2
2017-Dec-01 11:30N 43°30' W 003°07'1 1.6
2017-Dec-01 11:00N 43°29' W 003°07'1 1.7
2017-Dec-01 10:30N 43°28' W 003°06'1 2.0
2017-Dec-01 10:00N 43°28' W 003°05'1 1.6
2017-Dec-01 09:30N 43°28' W 003°04'0 0.8
2017-Dec-01 09:00N 43°28' W 003°04'611.8
2017-Dec-01 08:30N 43°31' W 003°11'1 1.1
2017-Dec-01 08:00N 43°31' W 003°12'1 1.3
2017-Dec-01 07:30N 43°31' W 003°11'1 1.3
2017-Dec-01 07:00N 43°30' W 003°10'1 1.6
2017-Dec-01 06:30N 43°30' W 003°09'1 1.1
2017-Dec-01 06:00N 43°30' W 003°08'1 1.1
2017-Dec-01 05:30N 43°30' W 003°08'1 1.0
2017-Dec-01 05:00N 43°29' W 003°08'0 1.0
2017-Dec-01 04:30N 43°29' W 003°08'1 1.7
2017-Dec-01 04:00N 43°28' W 003°08'0 0.2
2017-Dec-01 03:30N 43°28' W 003°08'612.4
2017-Dec-01 03:00N 43°34' W 003°11'713.1
2017-Dec-01 02:30N 43°40' W 003°15'713.3
2017-Dec-01 02:00N 43°46' W 003°18'713.0
2017-Dec-01 01:27N 43°53' W 003°22'613.0
2017-Dec-01 01:00N 43°58' W 003°25'24412.9
2017-Nov-30 06:08N 47°43' W 005°40'413.1
2017-Nov-30 05:49N 47°47' W 005°43'813.6
2017-Nov-30 05:12N 47°55' W 005°48'413.9
2017-Nov-30 04:57N 47°58' W 005°50'613.6
2017-Nov-30 04:29N 48°04' W 005°53'  
Track history (hours):
 
Tides and Currents Weather Stations Pressure Air Temp Water Temp Dewpoint Dewpoint Depression Visibility Wind Speed Wind Dir Waves Ship Positions

Wolgastern

Last reported at 2017-Dec-09 21:28 UTC. Time now 2017-Dec-13 09:13 UTC.
Position N 41°14' W 008°54'.

Length 162 m; draft 7.8 m.

Type: Ship. MMSI: 255804950.

Date/timePositionNaut miles runAvg speedWind from/ knotsBaromVisibWave heightAir tempDewpointWater temp
2017-Dec-09 21:28N 41°14' W 008°54'612.1
2017-Dec-09 21:00N 41°12' W 008°48'4 8.6
2017-Dec-09 20:30N 41°11' W 008°42'0 0.9
2017-Dec-09 19:59N 41°11' W 008°43'0 0.0
2017-Dec-09 19:29N 41°11' W 008°43'0 0.0
2017-Dec-09 18:59N 41°11' W 008°43'0 0.0
2017-Dec-09 18:29N 41°11' W 008°43'0 0.0
2017-Dec-09 17:59N 41°11' W 008°43'0 0.0
2017-Dec-09 17:29N 41°11' W 008°43'0 0.0
2017-Dec-09 16:59N 41°11' W 008°43'0 0.0
2017-Dec-09 16:29N 41°11' W 008°43'0 0.0
2017-Dec-09 15:59N 41°11' W 008°43'0 0.0
2017-Dec-09 15:29N 41°11' W 008°43'0 0.0
2017-Dec-09 14:59N 41°11' W 008°43'0 0.0
2017-Dec-09 14:29N 41°11' W 008°43'0 0.0
2017-Dec-09 13:59N 41°11' W 008°43'0 0.0
2017-Dec-09 13:29N 41°11' W 008°43'0 0.0
2017-Dec-09 12:56N 41°11' W 008°43'0 0.0
2017-Dec-09 12:29N 41°11' W 008°43'0 0.0
2017-Dec-09 11:59N 41°11' W 008°43'0 0.0
2017-Dec-09 11:29N 41°11' W 008°43'0 0.0
2017-Dec-09 10:59N 41°11' W 008°43'0 0.0
2017-Dec-09 10:29N 41°11' W 008°43'0 0.0
2017-Dec-09 09:59N 41°11' W 008°43'0 0.0
2017-Dec-09 09:29N 41°11' W 008°43'0 0.0
2017-Dec-09 08:59N 41°11' W 008°43'0 0.0
2017-Dec-09 08:29N 41°11' W 008°43'0 0.0
2017-Dec-09 07:59N 41°11' W 008°43'0 0.0
2017-Dec-09 07:29N 41°11' W 008°43'0 0.0
2017-Dec-09 06:59N 41°11' W 008°43'0 0.0
2017-Dec-09 06:29N 41°11' W 008°43'0 0.0
2017-Dec-09 05:59N 41°11' W 008°43'0 0.0
2017-Dec-09 05:29N 41°11' W 008°43'0 0.0
2017-Dec-09 04:59N 41°11' W 008°43'0 0.0
2017-Dec-09 04:29N 41°11' W 008°43'0 0.0
2017-Dec-09 03:59N 41°11' W 008°43'0 0.0
2017-Dec-09 03:29N 41°11' W 008°43'0 0.0
2017-Dec-09 02:59N 41°11' W 008°43'0 0.0
2017-Dec-09 02:29N 41°11' W 008°43'0 0.0
2017-Dec-09 01:59N 41°11' W 008°43'0 0.0
2017-Dec-09 01:29N 41°11' W 008°43'0 0.0
2017-Dec-09 00:59N 41°11' W 008°43'0 0.0
2017-Dec-09 00:29N 41°11' W 008°43'0 0.0
2017-Dec-08 23:59N 41°11' W 008°43'0 0.0
2017-Dec-08 23:29N 41°11' W 008°43'0 0.0
2017-Dec-08 22:59N 41°11' W 008°43'0 0.0
2017-Dec-08 22:29N 41°11' W 008°43'0 0.0
2017-Dec-08 21:59N 41°11' W 008°43'0 0.0
2017-Dec-08 21:29N 41°11' W 008°43'0 0.0
2017-Dec-08 20:59N 41°11' W 008°43'0 0.0
2017-Dec-08 20:29N 41°11' W 008°43'0 0.0
2017-Dec-08 19:59N 41°11' W 008°43'0 0.0
2017-Dec-08 19:29N 41°11' W 008°43'0 0.0
2017-Dec-08 18:59N 41°11' W 008°43'0 0.0
2017-Dec-08 18:29N 41°11' W 008°43'0 0.0
2017-Dec-08 17:59N 41°11' W 008°43'0 0.0
2017-Dec-08 17:29N 41°11' W 008°43'0 0.0
2017-Dec-08 16:53N 41°11' W 008°43'0 0.0
2017-Dec-08 16:29N 41°11' W 008°43'0 0.0
2017-Dec-08 15:59N 41°11' W 008°43'0 0.0
2017-Dec-08 15:29N 41°11' W 008°43'0 0.0
2017-Dec-08 14:59N 41°11' W 008°43'0 0.0
2017-Dec-08 14:29N 41°11' W 008°43'0 0.0
2017-Dec-08 13:59N 41°11' W 008°43'0 0.2
2017-Dec-08 13:30N 41°11' W 008°42'2 3.5
2017-Dec-08 13:00N 41°09' W 008°43'4 7.2
2017-Dec-08 12:30N 41°07' W 008°47'0 0.9
2017-Dec-08 12:00N 41°07' W 008°47'2 3.1
2017-Dec-08 11:30N 41°08' W 008°45'3 6.5
2017-Dec-08 11:00N 41°07' W 008°49'612.3
2017-Dec-08 10:30N 41°01' W 008°50'  
2017-Dec-04 10:09N 43°55' W 005°34'312.0
2017-Dec-04 09:56N 43°55' W 005°31'512.2
2017-Dec-04 09:30N 43°54' W 005°23'612.2
2017-Dec-04 09:00N 43°54' W 005°15'5612.1
2017-Dec-04 04:23N 43°49' W 003°58'512.0
2017-Dec-04 04:00N 43°47' W 003°52'611.8
2017-Dec-04 03:30N 43°44' W 003°45'612.0
2017-Dec-04 03:00N 43°41' W 003°37'611.8
2017-Dec-04 02:30N 43°39' W 003°30'611.5
2017-Dec-04 02:00N 43°36' W 003°23'611.4
2017-Dec-04 01:30N 43°33' W 003°16'611.4
2017-Dec-04 01:00N 43°30' W 003°10'611.7
2017-Dec-04 00:30N 43°25' W 003°06'3 5.5
2017-Dec-04 00:00N 43°22' W 003°06'0 0.0
2017-Dec-03 23:28N 43°22' W 003°06'0 0.0
2017-Dec-03 22:58N 43°22' W 003°06'0 0.0
2017-Dec-03 22:28N 43°22' W 003°06'0 0.0
2017-Dec-03 21:58N 43°22' W 003°06'0 0.0
2017-Dec-03 21:28N 43°22' W 003°06'0 0.0
2017-Dec-03 20:58N 43°22' W 003°06'0 0.0
2017-Dec-03 20:28N 43°22' W 003°06'0 0.0
2017-Dec-03 19:58N 43°22' W 003°06'0 0.0
2017-Dec-03 19:28N 43°22' W 003°06'0 0.0
2017-Dec-03 18:58N 43°22' W 003°06'0 0.0
2017-Dec-03 18:28N 43°22' W 003°06'0 0.0
2017-Dec-03 17:58N 43°22' W 003°06'0 0.0
2017-Dec-03 17:28N 43°22' W 003°06'0 0.0
2017-Dec-03 16:58N 43°22' W 003°06'0 0.0
2017-Dec-03 16:25N 43°22' W 003°06'0 0.0
2017-Dec-03 15:58N 43°22' W 003°06'0 0.0
2017-Dec-03 15:28N 43°22' W 003°06'0 0.0
2017-Dec-03 14:58N 43°22' W 003°06'0 0.0
2017-Dec-03 14:28N 43°22' W 003°06'0 0.0
2017-Dec-03 13:58N 43°22' W 003°06'0 0.0
2017-Dec-03 13:28N 43°22' W 003°06'0 0.0
2017-Dec-03 12:58N 43°22' W 003°06'0 0.0
2017-Dec-03 12:25N 43°22' W 003°06'0 0.0
2017-Dec-03 11:58N 43°22' W 003°06'0 0.0
2017-Dec-03 11:28N 43°22' W 003°06'0 0.0
2017-Dec-03 10:58N 43°22' W 003°06'0 0.0
2017-Dec-03 10:28N 43°22' W 003°06'0 0.0
2017-Dec-03 09:55N 43°22' W 003°06'0 0.0
2017-Dec-03 09:28N 43°22' W 003°06'0 0.0
2017-Dec-03 08:58N 43°22' W 003°06'0 0.0
2017-Dec-03 08:28N 43°22' W 003°06'0 0.0
2017-Dec-03 07:55N 43°22' W 003°06'0 0.0
2017-Dec-03 07:28N 43°22' W 003°06'0 0.0
2017-Dec-03 06:58N 43°22' W 003°06'0 0.0
2017-Dec-03 06:28N 43°22' W 003°06'0 0.0
2017-Dec-03 05:58N 43°22' W 003°06'0 0.0
2017-Dec-03 05:28N 43°22' W 003°06'0 0.0
2017-Dec-03 04:58N 43°22' W 003°06'0 0.0
2017-Dec-03 04:28N 43°22' W 003°06'0 0.0
2017-Dec-03 03:58N 43°22' W 003°06'0 0.0
2017-Dec-03 03:28N 43°22' W 003°06'0 0.0
2017-Dec-03 02:58N 43°22' W 003°06'0 0.0
2017-Dec-03 02:28N 43°22' W 003°06'0 0.0
2017-Dec-03 01:58N 43°22' W 003°06'0 0.0
2017-Dec-03 01:25N 43°22' W 003°06'0 0.0
2017-Dec-03 00:58N 43°22' W 003°06'0 0.0
2017-Dec-03 00:28N 43°22' W 003°06'0 0.0
2017-Dec-02 23:58N 43°22' W 003°06'0 0.0
2017-Dec-02 23:28N 43°22' W 003°06'0 0.0
2017-Dec-02 22:58N 43°22' W 003°06'0 0.0
2017-Dec-02 22:28N 43°22' W 003°06'0 0.0
2017-Dec-02 21:58N 43°22' W 003°06'0 0.0
2017-Dec-02 21:28N 43°22' W 003°06'0 0.0
2017-Dec-02 20:58N 43°22' W 003°06'0 0.0
2017-Dec-02 20:28N 43°22' W 003°06'0 0.0
2017-Dec-02 19:58N 43°22' W 003°06'0 0.0
2017-Dec-02 19:28N 43°22' W 003°06'0 0.0
2017-Dec-02 18:58N 43°22' W 003°06'0 0.0
2017-Dec-02 18:28N 43°22' W 003°06'0 0.0
2017-Dec-02 17:58N 43°22' W 003°06'0 0.0
2017-Dec-02 17:28N 43°22' W 003°06'0 0.0
2017-Dec-02 16:58N 43°22' W 003°06'0 0.0
2017-Dec-02 16:28N 43°22' W 003°06'0 0.0
2017-Dec-02 15:55N 43°22' W 003°06'0 0.0
2017-Dec-02 15:28N 43°22' W 003°06'0 0.0
2017-Dec-02 14:58N 43°22' W 003°06'0 0.0
2017-Dec-02 14:28N 43°22' W 003°06'0 0.0
2017-Dec-02 13:58N 43°22' W 003°06'0 0.0
2017-Dec-02 13:28N 43°22' W 003°06'0 0.0
2017-Dec-02 12:55N 43°22' W 003°06'0 0.0
2017-Dec-02 12:28N 43°22' W 003°06'0 0.0
2017-Dec-02 11:58N 43°22' W 003°06'0 0.0
2017-Dec-02 11:28N 43°22' W 003°06'0 0.0
2017-Dec-02 10:58N 43°22' W 003°06'0 0.0
2017-Dec-02 10:28N 43°22' W 003°06'0 0.0
2017-Dec-02 09:58N 43°22' W 003°06'0 0.0
2017-Dec-02 09:28N 43°22' W 003°06'0 0.0
2017-Dec-02 08:58N 43°22' W 003°06'0 0.0
2017-Dec-02 08:28N 43°22' W 003°06'0 0.0
2017-Dec-02 07:58N 43°22' W 003°06'0 0.0
2017-Dec-02 07:28N 43°22' W 003°06'0 0.0
2017-Dec-02 06:58N 43°22' W 003°06'0 0.0
2017-Dec-02 06:28N 43°22' W 003°06'0 0.0
2017-Dec-02 05:58N 43°22' W 003°06'0 0.0
2017-Dec-02 05:28N 43°22' W 003°06'0 0.0
2017-Dec-02 04:58N 43°22' W 003°06'0 0.0
2017-Dec-02 04:28N 43°22' W 003°06'0 0.0
2017-Dec-02 03:58N 43°22' W 003°06'0 0.0
2017-Dec-02 03:25N 43°22' W 003°06'0 0.0
2017-Dec-02 02:58N 43°22' W 003°06'0 0.0
2017-Dec-02 02:28N 43°22' W 003°06'0 0.0
2017-Dec-02 01:58N 43°22' W 003°06'0 0.0
2017-Dec-02 01:28N 43°22' W 003°06'0 0.0
2017-Dec-02 00:58N 43°22' W 003°06'0 0.1
2017-Dec-02 00:30N 43°22' W 003°06'2 3.4
2017-Dec-02 00:00N 43°24' W 003°05'3 5.2
2017-Dec-01 23:30N 43°26' W 003°06'1 2.0
2017-Dec-01 23:00N 43°27' W 003°06'0 0.8
2017-Dec-01 22:30N 43°27' W 003°06'0 0.6
2017-Dec-01 22:00N 43°27' W 003°05'5 9.9
2017-Dec-01 21:30N 43°31' W 003°09'0 0.8
2017-Dec-01 21:00N 43°31' W 003°09'1 1.2
2017-Dec-01 20:30N 43°31' W 003°08'1 1.9
2017-Dec-01 20:00N 43°30' W 003°08'1 2.0
2017-Dec-01 19:30N 43°29' W 003°08'1 1.2
2017-Dec-01 19:00N 43°29' W 003°08'1 1.8
2017-Dec-01 18:30N 43°28' W 003°06'1 2.2
2017-Dec-01 18:00N 43°29' W 003°05'1 1.8
2017-Dec-01 17:30N 43°28' W 003°04'2 4.1
2017-Dec-01 17:00N 43°30' W 003°05'3 6.1
2017-Dec-01 16:30N 43°32' W 003°09'3 4.3
2017-Dec-01 15:53N 43°33' W 003°12'1 3.5
2017-Dec-01 15:29N 43°35' W 003°13'1 2.2
2017-Dec-01 14:58N 43°36' W 003°13'3 5.9
2017-Dec-01 14:26N 43°33' W 003°11'1 2.1
2017-Dec-01 14:00N 43°32' W 003°11'0 0.9
2017-Dec-01 13:30N 43°32' W 003°10'0 0.9
2017-Dec-01 13:00N 43°32' W 003°10'1 2.2
2017-Dec-01 12:30N 43°31' W 003°09'1 1.5
2017-Dec-01 12:00N 43°30' W 003°08'1 1.2
2017-Dec-01 11:30N 43°30' W 003°07'1 1.6
2017-Dec-01 11:00N 43°29' W 003°07'1 1.7
2017-Dec-01 10:30N 43°28' W 003°06'1 2.0
2017-Dec-01 10:00N 43°28' W 003°05'1 1.6
2017-Dec-01 09:30N 43°28' W 003°04'0 0.8
2017-Dec-01 09:00N 43°28' W 003°04'611.8
2017-Dec-01 08:30N 43°31' W 003°11'1 1.1
2017-Dec-01 08:00N 43°31' W 003°12'1 1.3
2017-Dec-01 07:30N 43°31' W 003°11'1 1.3
2017-Dec-01 07:00N 43°30' W 003°10'1 1.6
2017-Dec-01 06:30N 43°30' W 003°09'1 1.1
2017-Dec-01 06:00N 43°30' W 003°08'1 1.1
2017-Dec-01 05:30N 43°30' W 003°08'1 1.0
2017-Dec-01 05:00N 43°29' W 003°08'0 1.0
2017-Dec-01 04:30N 43°29' W 003°08'1 1.7
2017-Dec-01 04:00N 43°28' W 003°08'0 0.2
2017-Dec-01 03:30N 43°28' W 003°08'612.4
2017-Dec-01 03:00N 43°34' W 003°11'713.1
2017-Dec-01 02:30N 43°40' W 003°15'713.3
2017-Dec-01 02:00N 43°46' W 003°18'713.0
2017-Dec-01 01:27N 43°53' W 003°22'613.0
2017-Dec-01 01:00N 43°58' W 003°25'24412.9
2017-Nov-30 06:08N 47°43' W 005°40'413.1
2017-Nov-30 05:49N 47°47' W 005°43'813.6
2017-Nov-30 05:12N 47°55' W 005°48'413.9
2017-Nov-30 04:57N 47°58' W 005°50'613.6
2017-Nov-30 04:29N 48°04' W 005°53'  

Dump ship's entire track history